createdAt,value
2022-11-04T00:01:47.217Z,14.97
2022-11-04T00:04:18.152Z,20.10
2022-11-04T00:06:45.874Z,18.10
2022-11-04T00:09:17.868Z,15.13
2022-11-04T00:12:04.485Z,17.17
2022-11-04T00:14:33.481Z,14.90
2022-11-04T00:17:20.023Z,22.83
2022-11-04T00:20:13.456Z,17.47
2022-11-04T00:23:01.637Z,17.67
2022-11-04T00:25:47.595Z,16.17
2022-11-04T00:28:36.341Z,14.90
2022-11-04T00:31:25.181Z,21.05
2022-11-04T00:33:55.187Z,15.70
2022-11-04T00:36:24.199Z,16.40
2022-11-04T00:38:52.040Z,16.65
2022-11-04T00:41:30.164Z,18.83
2022-11-04T00:44:02.959Z,19.67
2022-11-04T00:46:33.157Z,19.40
2022-11-04T00:49:00.945Z,18.30
2022-11-04T00:51:28.671Z,16.40
2022-11-04T00:53:58.438Z,20.37
2022-11-04T00:56:25.831Z,22.07
2022-11-04T00:58:53.305Z,24.53
2022-11-04T01:01:21.246Z,16.93
2022-11-04T01:03:51.516Z,22.70
2022-11-04T01:06:20.527Z,23.40
2022-11-04T01:08:48.687Z,19.98
2022-11-04T01:11:16.988Z,25.07
2022-11-04T01:13:44.334Z,20.62
2022-11-04T01:16:13.367Z,19.80
2022-11-04T01:18:41.186Z,22.90
2022-11-04T01:21:10.921Z,18.03
2022-11-04T01:23:39.515Z,23.57
2022-11-04T01:26:16.905Z,22.95
2022-11-04T01:28:45.015Z,21.63
2022-11-04T01:31:18.756Z,19.20
2022-11-04T01:33:46.409Z,16.63
2022-11-04T01:36:14.538Z,22.87
2022-11-04T01:38:42.662Z,23.13
2022-11-04T01:41:18.744Z,19.48
2022-11-04T01:43:47.089Z,21.83
2022-11-04T01:46:38.084Z,24.10
2022-11-04T01:49:43.352Z,23.57
2022-11-04T01:52:16.581Z,23.40
2022-11-04T01:54:48.068Z,22.03
2022-11-04T01:57:23.733Z,21.37
2022-11-04T01:59:51.089Z,20.00
2022-11-04T02:02:18.881Z,21.27
2022-11-04T02:04:47.230Z,20.77
2022-11-04T02:07:14.775Z,21.53
2022-11-04T02:09:43.976Z,21.93
2022-11-04T02:14:58.605Z,21.33
2022-11-04T02:18:06.680Z,26.37
2022-11-04T02:21:11.676Z,24.50
2022-11-04T02:23:58.605Z,30.60
2022-11-04T02:27:01.200Z,30.17
2022-11-04T02:29:47.484Z,29.97
2022-11-04T02:32:26.936Z,27.90
2022-11-04T02:35:06.185Z,25.77
2022-11-04T02:37:37.653Z,23.40
2022-11-04T02:40:08.445Z,26.57
2022-11-04T02:42:44.902Z,27.07
2022-11-04T02:45:24.969Z,35.80
2022-11-04T02:47:58.153Z,24.93
2022-11-04T02:50:33.448Z,30.53
2022-11-04T02:53:18.474Z,32.50
2022-11-04T02:55:49.899Z,29.10
2022-11-04T02:58:23.896Z,31.47
2022-11-04T03:00:55.133Z,33.03
2022-11-04T03:03:28.412Z,31.17
2022-11-04T03:05:58.250Z,34.70
2022-11-04T03:08:37.001Z,31.50
2022-11-04T03:14:04.672Z,33.50
2022-11-04T03:16:40.944Z,34.63
2022-11-04T03:19:18.793Z,34.27
2022-11-04T03:22:11.941Z,30.25
2022-11-04T03:24:39.850Z,36.27
2022-11-04T03:27:26.064Z,37.38
2022-11-04T03:30:08.367Z,33.87
2022-11-04T03:33:01.972Z,33.27
2022-11-04T03:35:29.599Z,30.40
2022-11-04T03:37:57.520Z,30.33
2022-11-04T03:40:26.020Z,39.53
2022-11-04T03:42:59.406Z,36.38
2022-11-04T03:45:27.777Z,35.70
2022-11-04T03:47:57.085Z,33.43
2022-11-04T03:50:31.017Z,31.60
2022-11-04T03:53:00.341Z,36.63
2022-11-04T03:55:59.880Z,38.70
2022-11-04T03:58:58.378Z,36.23
2022-11-04T04:01:54.454Z,35.47
2022-11-04T04:04:34.317Z,34.00
2022-11-04T04:07:23.538Z,33.27
2022-11-04T04:09:58.280Z,35.20
2022-11-04T04:12:31.165Z,38.57
2022-11-04T04:15:06.821Z,34.17
2022-11-04T04:17:47.263Z,36.57
2022-11-04T04:20:18.662Z,34.67
2022-11-04T04:23:02.232Z,32.90
2022-11-04T04:25:51.458Z,39.87
2022-11-04T04:30:48.053Z,33.53
2022-11-04T04:33:18.920Z,38.30
2022-11-04T04:35:55.478Z,36.80
2022-11-04T04:38:44.238Z,41.60
2022-11-04T04:44:43.069Z,30.30
2022-11-04T04:47:22.697Z,40.30
2022-11-04T04:49:58.424Z,37.07
2022-11-04T04:52:30.715Z,29.53
2022-11-04T04:54:58.530Z,29.57
2022-11-04T04:57:26.842Z,28.80
2022-11-04T04:59:54.500Z,34.03
2022-11-04T05:02:22.007Z,28.97
2022-11-04T05:04:50.479Z,34.10
2022-11-04T05:09:12.000Z,30.97
2022-11-04T05:11:40.530Z,34.77
2022-11-04T05:14:07.933Z,36.80
2022-11-04T05:16:40.584Z,32.20
2022-11-04T05:19:09.576Z,37.47
2022-11-04T05:21:37.623Z,41.45
2022-11-04T05:24:05.703Z,33.87
2022-11-04T05:26:33.422Z,37.72
2022-11-04T05:29:01.242Z,35.70
2022-11-04T05:31:30.515Z,31.70
2022-11-04T05:34:00.069Z,41.10
2022-11-04T05:36:27.470Z,37.63
2022-11-04T05:38:57.577Z,46.33
2022-11-04T05:41:28.702Z,42.10
2022-11-04T05:44:04.010Z,35.47
2022-11-04T05:46:33.342Z,35.50
2022-11-04T05:49:00.688Z,28.27
2022-11-04T05:51:30.635Z,27.83
2022-11-04T05:53:58.425Z,35.33
2022-11-04T05:56:26.795Z,33.33
2022-11-04T05:58:54.415Z,34.92
2022-11-04T06:01:27.133Z,39.90
2022-11-04T06:03:55.447Z,38.53
2022-11-04T06:09:12.560Z,37.23
2022-11-04T06:11:40.707Z,46.28
2022-11-04T06:14:08.066Z,36.50
2022-11-04T06:16:35.654Z,45.40
2022-11-04T06:19:08.580Z,46.70
2022-11-04T06:21:39.958Z,39.60
2022-11-04T06:24:08.311Z,44.17
2022-11-04T06:26:36.347Z,43.33
2022-11-04T06:29:04.373Z,46.42
2022-11-04T06:31:32.173Z,46.03
2022-11-04T06:33:59.737Z,48.80
2022-11-04T06:36:27.510Z,56.10
2022-11-04T06:39:01.390Z,42.63
2022-11-04T06:41:32.156Z,51.53
2022-11-04T06:43:59.841Z,53.53
2022-11-04T06:46:31.968Z,47.70
2022-11-04T06:49:00.618Z,56.40
2022-11-04T06:51:28.292Z,48.53
2022-11-04T06:53:56.254Z,49.93
2022-11-04T06:56:25.352Z,52.08
2022-11-04T06:58:54.858Z,53.05
2022-11-04T07:01:24.800Z,52.60
2022-11-04T07:09:14.344Z,51.30
2022-11-04T07:11:43.624Z,53.97
2022-11-04T07:14:13.681Z,52.27
2022-11-04T07:19:08.775Z,54.00
2022-11-04T07:21:36.226Z,47.80
2022-11-04T07:24:03.829Z,54.30
2022-11-04T07:29:01.476Z,51.77
2022-11-04T07:31:28.929Z,52.88
2022-11-04T07:33:56.757Z,47.50
2022-11-04T07:36:24.405Z,54.70
2022-11-04T07:38:51.755Z,58.03
2022-11-04T07:41:20.093Z,47.17
2022-11-04T07:43:52.012Z,43.87
2022-11-04T07:46:21.593Z,47.23
2022-11-04T07:48:49.043Z,44.00
2022-11-04T07:51:19.430Z,50.73
2022-11-04T07:53:47.723Z,42.47
2022-11-04T07:56:16.213Z,42.73
2022-11-04T07:58:43.966Z,39.40
2022-11-04T08:01:16.541Z,41.73
2022-11-04T08:03:44.714Z,46.83
2022-11-04T08:06:15.385Z,47.73
2022-11-04T08:08:43.901Z,49.40
2022-11-04T08:11:18.215Z,39.25
2022-11-04T08:13:47.239Z,44.53
2022-11-04T08:16:20.386Z,46.10
2022-11-04T08:18:49.421Z,44.60
2022-11-04T08:26:18.009Z,36.67
2022-11-04T08:28:46.613Z,43.53
2022-11-04T08:31:20.326Z,43.20
2022-11-04T08:33:48.522Z,42.37
2022-11-04T08:36:24.401Z,42.80
2022-11-04T08:38:52.719Z,39.93
2022-11-04T08:41:28.274Z,44.53
2022-11-04T08:44:00.515Z,38.03
2022-11-04T08:46:29.630Z,36.13
2022-11-04T08:48:58.524Z,36.03
2022-11-04T08:51:28.931Z,38.97
2022-11-04T08:53:56.631Z,38.20
2022-11-04T08:56:30.878Z,34.20
2022-11-04T08:59:00.242Z,35.80
2022-11-04T09:01:34.324Z,35.88
2022-11-04T09:04:05.821Z,37.57
2022-11-04T09:06:37.345Z,32.03
2022-11-04T09:09:07.507Z,31.63
2022-11-04T09:11:38.687Z,39.70
2022-11-04T09:14:06.916Z,33.07
2022-11-04T09:16:35.792Z,35.40
2022-11-04T09:19:03.956Z,31.98
2022-11-04T09:21:31.635Z,35.35
2022-11-04T09:23:59.024Z,31.57
2022-11-04T09:26:27.021Z,30.57
2022-11-04T09:28:58.845Z,29.30
2022-11-04T09:31:28.625Z,27.97
2022-11-04T09:33:57.134Z,31.13
2022-11-04T09:36:25.154Z,29.90
2022-11-04T09:38:54.780Z,32.60
2022-11-04T09:42:02.040Z,27.43
2022-11-04T09:45:06.951Z,33.83
2022-11-04T09:47:34.151Z,26.70
2022-11-04T09:50:03.099Z,29.83
2022-11-04T09:52:40.098Z,35.25
2022-11-04T09:55:32.541Z,31.33
2022-11-04T09:58:00.512Z,33.40
2022-11-04T10:00:32.200Z,31.37
2022-11-04T10:03:15.761Z,32.70
2022-11-04T10:05:55.861Z,32.27
2022-11-04T10:08:37.709Z,26.57
2022-11-04T10:11:21.839Z,28.10
2022-11-04T10:14:31.385Z,30.53
2022-11-04T10:17:26.775Z,33.73
2022-11-04T10:20:13.275Z,29.73
2022-11-04T10:22:52.639Z,35.17
2022-11-04T10:25:30.147Z,31.67
2022-11-04T10:28:00.291Z,28.98
2022-11-04T10:30:29.879Z,34.80
2022-11-04T10:33:09.716Z,30.23
2022-11-04T10:35:57.399Z,30.20
2022-11-04T10:38:48.736Z,29.97
2022-11-04T10:41:38.053Z,30.33
2022-11-04T10:44:12.118Z,30.15
2022-11-04T10:46:54.554Z,26.00
2022-11-04T10:50:22.325Z,31.13
2022-11-04T10:52:42.747Z,26.63
2022-11-04T10:55:35.606Z,25.60
2022-11-04T10:58:04.179Z,26.27
2022-11-04T11:00:40.844Z,30.35
2022-11-04T11:03:33.211Z,27.00
2022-11-04T11:06:33.169Z,26.73
2022-11-04T11:09:14.584Z,23.87
2022-11-04T11:11:49.579Z,28.70
2022-11-04T11:14:36.268Z,23.37
2022-11-04T11:17:21.048Z,29.80
2022-11-04T11:19:52.997Z,26.87
2022-11-04T11:22:37.943Z,30.53
2022-11-04T11:25:25.399Z,23.83
2022-11-04T11:28:01.681Z,30.43
2022-11-04T11:30:32.837Z,31.97
2022-11-04T11:33:14.264Z,28.87
2022-11-04T11:35:50.876Z,28.93
2022-11-04T11:38:19.236Z,28.23
2022-11-04T11:41:10.857Z,27.48
2022-11-04T11:43:38.094Z,26.50
2022-11-04T11:46:06.374Z,26.75
2022-11-04T11:48:43.349Z,25.77
2022-11-04T11:51:25.196Z,24.05
2022-11-04T11:54:14.660Z,24.10
2022-11-04T12:02:58.949Z,23.90
2022-11-04T12:09:23.063Z,24.92
2022-11-04T12:12:03.189Z,21.92
2022-11-04T12:15:15.129Z,23.87
2022-11-04T12:18:22.235Z,25.83
2022-11-04T12:21:22.701Z,22.37
2022-11-04T12:24:18.494Z,27.55
2022-11-04T12:26:52.565Z,21.02
2022-11-04T12:29:37.417Z,27.30
2022-11-04T12:32:16.936Z,26.53
2022-11-04T12:35:04.174Z,23.00
2022-11-04T12:37:50.722Z,20.48
2022-11-04T12:40:28.876Z,21.17
2022-11-04T12:43:18.697Z,21.03
2022-11-04T12:45:53.097Z,20.73
2022-11-04T12:49:07.382Z,24.20
2022-11-04T12:52:14.211Z,21.20
2022-11-04T12:54:53.763Z,19.90
2022-11-04T12:57:59.821Z,24.42
2022-11-04T13:00:31.262Z,22.48
2022-11-04T13:02:58.951Z,20.27
2022-11-04T13:05:42.910Z,19.20
2022-11-04T13:08:19.890Z,27.92
2022-11-04T13:10:59.506Z,20.33
2022-11-04T13:13:34.797Z,25.35
2022-11-04T13:16:11.133Z,19.95
2022-11-04T13:18:41.464Z,19.77
2022-11-04T13:21:14.392Z,22.42
2022-11-04T13:23:58.209Z,19.17
2022-11-04T13:26:26.743Z,18.43
2022-11-04T13:29:07.472Z,23.75
2022-11-04T13:31:54.283Z,21.60
2022-11-04T13:34:51.282Z,22.40
2022-11-04T13:37:31.330Z,23.63
2022-11-04T13:40:14.029Z,23.00
2022-11-04T13:42:50.630Z,16.53
2022-11-04T13:45:20.257Z,21.85
2022-11-04T13:47:57.688Z,21.15
2022-11-04T13:50:43.619Z,20.00
2022-11-04T13:53:11.905Z,20.35
2022-11-04T13:58:45.994Z,20.35
2022-11-04T14:01:29.407Z,19.30
2022-11-04T14:04:29.630Z,19.00
2022-11-04T14:09:50.256Z,26.02
2022-11-04T14:12:26.092Z,23.20
2022-11-04T14:14:56.747Z,22.65
2022-11-04T14:17:44.635Z,19.83
2022-11-04T14:20:26.685Z,21.83
2022-11-04T14:23:02.812Z,24.87
2022-11-04T14:25:38.168Z,21.00
2022-11-04T14:28:14.985Z,20.80
2022-11-04T14:31:17.653Z,22.60
2022-11-04T14:33:58.017Z,20.83
2022-11-04T14:36:30.697Z,24.93
2022-11-04T14:39:04.575Z,22.40
2022-11-04T14:42:02.494Z,26.33
2022-11-04T14:44:49.343Z,23.10
2022-11-04T14:47:26.988Z,22.13
2022-11-04T14:50:01.738Z,23.10
2022-11-04T14:52:38.751Z,22.87
2022-11-04T14:55:17.505Z,24.73
2022-11-04T14:57:47.464Z,26.00
2022-11-04T15:00:27.388Z,27.60
2022-11-04T15:03:11.206Z,23.73
2022-11-04T15:05:54.074Z,17.13
2022-11-04T15:08:50.859Z,24.67
2022-11-04T15:11:41.493Z,19.93
2022-11-04T15:14:22.065Z,25.33
2022-11-04T15:16:59.767Z,24.17
2022-11-04T15:19:35.805Z,29.10
2022-11-04T15:22:06.676Z,21.53
2022-11-04T15:24:35.222Z,26.20
2022-11-04T15:27:06.293Z,25.77
2022-11-04T15:29:36.551Z,25.67
2022-11-04T15:32:05.524Z,30.03
2022-11-04T15:34:36.343Z,30.62
2022-11-04T15:37:06.135Z,33.00
2022-11-04T15:39:50.066Z,30.70
2022-11-04T15:42:42.755Z,27.77
2022-11-04T15:45:53.563Z,29.50
2022-11-04T15:48:29.453Z,26.83
2022-11-04T15:51:14.465Z,24.50
2022-11-04T15:53:48.482Z,30.20
2022-11-04T15:56:18.284Z,26.67
2022-11-04T15:58:46.940Z,31.40
2022-11-04T16:01:16.254Z,33.83
2022-11-04T16:03:58.717Z,27.50
2022-11-04T16:06:34.928Z,28.33
2022-11-04T16:09:19.440Z,36.23
2022-11-04T16:12:11.845Z,26.47
2022-11-04T16:14:39.613Z,27.63
2022-11-04T16:17:11.454Z,25.23
2022-11-04T16:19:38.998Z,29.90
2022-11-04T16:22:09.894Z,32.40
2022-11-04T16:24:40.928Z,25.90
2022-11-04T16:27:11.090Z,24.90
2022-11-04T16:29:41.635Z,27.73
2022-11-04T16:32:20.367Z,33.83
2022-11-04T16:34:51.452Z,29.43
2022-11-04T16:37:19.128Z,27.27
2022-11-04T16:39:46.672Z,34.47
2022-11-04T16:42:15.637Z,29.47
2022-11-04T16:44:59.272Z,23.17
2022-11-04T16:47:30.058Z,21.57
2022-11-04T16:50:02.145Z,24.43
2022-11-04T16:52:30.924Z,25.53
2022-11-04T16:57:25.929Z,28.03
2022-11-04T16:59:53.364Z,29.20
2022-11-04T17:02:28.214Z,22.53
2022-11-04T17:04:56.030Z,26.97
2022-11-04T17:07:40.521Z,30.90
2022-11-04T17:10:23.393Z,27.02
2022-11-04T17:12:51.163Z,22.57
2022-11-04T17:15:18.840Z,21.33
2022-11-04T17:17:46.656Z,28.43
2022-11-04T17:20:17.878Z,26.10
2022-11-04T17:22:47.168Z,28.20
2022-11-04T17:25:21.274Z,24.60
2022-11-04T17:27:49.617Z,24.90
2022-11-04T17:30:18.402Z,23.20
2022-11-04T17:32:46.900Z,29.42
2022-11-04T17:35:15.929Z,29.23
2022-11-04T17:37:44.199Z,36.03
2022-11-04T17:40:17.995Z,34.47
2022-11-04T17:43:10.330Z,24.57
2022-11-04T17:45:44.060Z,24.03
2022-11-04T17:48:14.472Z,26.53
2022-11-04T17:50:42.548Z,24.77
2022-11-04T17:53:10.222Z,31.13
2022-11-04T17:55:40.073Z,27.30
2022-11-04T17:58:07.576Z,28.77
2022-11-04T18:00:34.904Z,25.30
2022-11-04T18:03:02.678Z,23.57
2022-11-04T18:05:30.087Z,27.37
2022-11-04T18:07:58.666Z,28.83
2022-11-04T18:10:26.401Z,42.58
2022-11-04T18:12:53.752Z,32.53
2022-11-04T18:15:21.139Z,34.37
2022-11-04T18:17:50.961Z,31.43
2022-11-04T18:22:45.816Z,31.90
2022-11-04T18:25:13.685Z,24.67
2022-11-04T18:27:41.136Z,23.50
2022-11-04T18:30:09.236Z,24.10
2022-11-04T18:32:36.969Z,20.37
2022-11-04T18:35:04.619Z,23.97
2022-11-04T18:37:31.982Z,22.87
2022-11-04T18:39:59.604Z,18.17
2022-11-04T18:42:26.974Z,19.93
2022-11-04T18:44:55.328Z,20.97
2022-11-04T18:47:24.058Z,24.27
2022-11-04T18:49:51.566Z,24.77
2022-11-04T18:52:19.041Z,18.60
2022-11-04T18:54:46.862Z,20.23
2022-11-04T18:57:14.321Z,21.80
2022-11-04T18:59:41.781Z,28.20
2022-11-04T19:02:18.586Z,27.80
2022-11-04T19:04:46.065Z,24.40
2022-11-04T19:07:14.564Z,21.50
2022-11-04T19:09:47.132Z,20.47
2022-11-04T19:12:34.875Z,22.27
2022-11-04T19:15:04.240Z,26.33
2022-11-04T19:17:32.099Z,21.47
2022-11-04T19:19:59.511Z,24.10
2022-11-04T19:22:26.994Z,24.17
2022-11-04T19:24:54.839Z,23.53
2022-11-04T19:27:25.171Z,25.20
2022-11-04T19:29:53.147Z,27.93
2022-11-04T19:32:21.448Z,29.80
2022-11-04T19:34:50.181Z,28.50
2022-11-04T19:37:18.002Z,24.65
2022-11-04T19:39:45.722Z,21.43
2022-11-04T19:42:35.137Z,27.20
2022-11-04T19:45:02.921Z,28.10
2022-11-04T19:47:30.322Z,23.00
2022-11-04T19:49:57.730Z,22.23
2022-11-04T19:52:25.400Z,27.07
2022-11-04T19:54:52.750Z,23.57
2022-11-04T19:57:20.086Z,24.70
2022-11-04T19:59:49.135Z,26.77
2022-11-04T20:02:16.727Z,20.15
2022-11-04T20:04:46.726Z,22.60
2022-11-04T20:07:14.082Z,20.50
2022-11-04T20:09:41.550Z,24.30
2022-11-04T20:12:27.705Z,21.57
2022-11-04T20:14:56.634Z,25.83
2022-11-04T20:17:24.750Z,23.70
2022-11-04T20:19:52.451Z,20.37
2022-11-04T20:22:19.720Z,27.53
2022-11-04T20:24:47.656Z,26.27
2022-11-04T20:27:16.431Z,25.20
2022-11-04T20:29:43.853Z,22.55
2022-11-04T20:32:11.553Z,22.60
2022-11-04T20:34:40.198Z,26.20
2022-11-04T20:37:07.965Z,20.58
2022-11-04T20:39:36.486Z,21.13
2022-11-04T20:42:04.069Z,20.33
2022-11-04T20:44:31.424Z,24.87
2022-11-04T20:47:00.262Z,27.00
2022-11-04T20:49:28.791Z,19.45
2022-11-04T20:51:56.996Z,28.83
2022-11-04T20:54:24.865Z,25.90
2022-11-04T20:56:52.241Z,22.90
2022-11-04T20:59:19.698Z,29.10
2022-11-04T21:01:48.825Z,30.57
2022-11-04T21:04:20.898Z,25.25
2022-11-04T21:06:50.879Z,24.63
2022-11-04T21:09:20.489Z,25.30
2022-11-04T21:11:48.307Z,23.83
2022-11-04T21:14:19.138Z,25.73
2022-11-04T21:16:47.336Z,23.90
2022-11-04T21:19:16.191Z,27.70
2022-11-04T21:24:14.041Z,27.43
2022-11-04T21:26:42.356Z,28.37
2022-11-04T21:29:13.919Z,26.65
2022-11-04T21:31:41.933Z,28.67
2022-11-04T21:34:10.201Z,27.87
2022-11-04T21:36:38.128Z,28.47
2022-11-04T21:39:06.445Z,28.33
2022-11-04T21:41:37.283Z,36.35
2022-11-04T21:44:08.555Z,31.83
2022-11-04T21:46:37.179Z,27.80
2022-11-04T21:49:04.970Z,28.75
2022-11-04T21:51:34.525Z,23.60
2022-11-04T21:54:05.823Z,27.80
2022-11-04T21:56:33.360Z,28.97
2022-11-04T21:59:01.496Z,29.20
2022-11-04T22:01:30.554Z,27.23
2022-11-04T22:06:34.509Z,32.27
2022-11-04T22:09:05.969Z,35.23
2022-11-04T22:11:37.369Z,28.23
2022-11-04T22:14:07.557Z,30.03
2022-11-04T22:16:38.027Z,30.03
2022-11-04T22:19:08.070Z,31.10
2022-11-04T22:21:39.484Z,29.87
2022-11-04T22:24:10.239Z,27.33
2022-11-04T22:26:38.043Z,30.20
2022-11-04T22:29:05.506Z,31.07
2022-11-04T22:31:37.011Z,25.23
2022-11-04T22:34:05.089Z,28.03
2022-11-04T22:36:33.985Z,26.87
2022-11-04T22:39:01.264Z,28.55
2022-11-04T22:41:31.672Z,35.03
2022-11-04T22:43:59.645Z,29.90
2022-11-04T22:46:33.181Z,30.87
2022-11-04T22:49:00.936Z,29.27
2022-11-04T22:51:29.871Z,26.03
2022-11-04T22:56:32.345Z,30.80
2022-11-04T22:59:01.350Z,26.60
2022-11-04T23:01:28.857Z,33.22
2022-11-04T23:03:57.015Z,32.57
2022-11-04T23:06:25.135Z,30.63
2022-11-04T23:08:59.521Z,31.23
2022-11-04T23:11:48.124Z,33.97
2022-11-04T23:14:36.505Z,31.17
2022-11-04T23:17:32.102Z,41.40
2022-11-04T23:19:59.670Z,32.53
2022-11-04T23:22:45.836Z,36.03
2022-11-04T23:25:13.848Z,33.57
2022-11-04T23:28:06.583Z,34.67
2022-11-04T23:30:43.318Z,31.93
2022-11-04T23:33:14.778Z,35.30
2022-11-04T23:36:03.936Z,35.63
2022-11-04T23:38:32.761Z,30.07
2022-11-04T23:41:22.805Z,33.42
2022-11-04T23:43:50.422Z,34.23
2022-11-04T23:46:42.178Z,36.27
2022-11-04T23:49:30.333Z,32.07
2022-11-04T23:52:16.487Z,33.90
2022-11-04T23:55:02.611Z,37.97
2022-11-04T23:57:48.480Z,38.17
